Latest Weather Observations for Mallacoota

IDV60801

Issued at 8:52 am EST Saturday 24 August 2019 (issued every 10 minutes, with the page automatically refreshed every 10 minutes)

About weather observations | Map of weather stations | Latest weather observations for VIC | Other Formats
Station Details ID: 084084 Name: MALLACOOTA Lat: -37.60 Lon: 149.73 Height: 22.0 m
Data from the previous 72 hours. | See also: Recent months at Mallacoota
Date/Time
EST
Temp
°C
App
Temp
°C
Dew
Point
°C
Rel
Hum
%
Delta-T
°C
Wind Press
QNH
hPa
Press
MSL
hPa
Rain since
9am
mm
Dir  Spd
km/h
Gust
km/h
Spd
kts
Gust
kts
24/08:30am 7.6 3.9 2.3 69 2.2 NW 11 13 6 7 1017.1 1017.1 0.0
24/08:00am 6.0 2.3 2.3 77 1.5 WNW 11 17 6 9 1017.1 1017.1 0.0
24/07:30am 3.7 -0.6 1.1 83 1.0 WNW 13 17 7 9 1016.9 1016.9 0.0
24/07:00am 2.7 -1.7 0.4 85 0.9 WNW 13 17 7 9 1016.8 1016.8 0.0
24/06:30am 2.0 -2.5 -0.4 84 0.9 WNW 13 17 7 9 1016.7 1016.7 0.0
24/06:00am 2.2 -2.3 -0.4 83 0.9 WNW 13 17 7 9 1016.6 1016.6 0.0
24/05:30am 3.0 -1.4 0.6 84 0.9 WNW 13 17 7 9 1016.6 1016.6 0.0
24/05:00am 3.5 -0.7 1.5 87 0.8 WNW 13 17 7 9 1016.4 1016.4 0.0
24/04:30am 2.9 -0.6 1.3 89 0.6 NW 9 13 5 7 1016.6 1016.6 0.0
24/04:00am 3.1 0.0 1.5 89 0.6 WNW 7 11 4 6 1016.6 1016.6 0.0
24/03:30am 4.2 1.5 2.4 88 0.7 W 6 11 3 6 1016.5 1016.5 0.0
24/03:00am 4.7 0.7 3.0 89 0.7 WNW 13 19 7 10 1016.3 1016.3 0.0
24/02:30am 4.3 1.4 2.7 89 0.6 W 7 11 4 6 1016.6 1016.6 0.0
24/02:00am 5.1 0.9 3.6 90 0.6 WNW 15 19 8 10 1016.5 1016.5 0.0
24/01:30am 5.1 0.8 3.4 89 0.7 NW 15 20 8 11 1017.0 1017.0 0.0
24/01:00am 5.8 2.0 4.0 88 0.8 NW 13 17 7 9 1017.8 1017.8 0.0
24/12:30am 6.2 2.5 4.2 87 0.9 NW 13 17 7 9 1018.1 1018.1 0.0
24/12:00am 6.6 3.3 4.4 86 0.9 WNW 11 15 6 8 1018.6 1018.6 0.0
 
Date/Time
EST
Temp
°C
App
Temp
°C
Dew
Point
°C
Rel
Hum
%
Delta-T
°C
Wind Press
QNH
hPa
Press
MSL
hPa
Rain since
9am
mm
Dir  Spd
km/h
Gust
km/h
Spd
kts
Gust
kts
23/11:30pm 6.6 3.6 4.1 84 1.1 NW 9 13 5 7 1019.0 1019.0 0.0
23/11:00pm 7.2 3.5 4.5 83 1.2 WNW 13 17 7 9 1019.2 1019.2 0.0
23/10:30pm 7.0 3.2 4.1 82 1.2 WNW 13 17 7 9 1019.1 1019.1 0.0
23/10:00pm 7.5 4.2 4.6 82 1.3 WNW 11 15 6 8 1019.3 1019.3 0.0
23/09:30pm 7.4 3.7 4.7 83 1.2 WNW 13 17 7 9 1019.1 1019.1 0.0
23/09:00pm 7.5 4.3 5.0 84 1.1 WNW 11 15 6 8 1019.2 1019.2 0.0
23/08:30pm 5.8 3.0 3.1 83 1.1 NW 7 11 4 6 1019.3 1019.3 0.0
23/08:00pm 7.0 3.9 3.8 80 1.4 W 9 11 5 6 1019.6 1019.6 0.0
23/07:30pm 7.4 4.8 3.3 75 1.7 W 6 7 3 4 1019.7 1019.7 0.0
23/07:00pm 9.2 6.3 4.6 73 2.0 N 9 13 5 7 1019.5 1019.5 0.0
23/06:30pm 8.9 5.9 4.3 73 2.0 N 9 13 5 7 1019.5 1019.5 0.0
23/06:00pm 9.0 6.1 4.4 73 2.0 NW 9 11 5 6 1019.7 1019.7 0.0
23/05:30pm 10.5 8.1 5.3 70 2.4 W 7 9 4 5 1019.7 1019.7 0.0
23/05:00pm 12.3 10.8 5.2 62 3.3 WSW 2 7 1 4 1019.8 1019.8 0.0
23/04:30pm 13.6 12.2 5.7 59 3.7 SSW 2 6 1 3 1020.0 1020.0 0.0
23/04:00pm 13.4 11.1 5.8 60 3.6 SSW 7 9 4 5 1020.2 1020.2 0.0
23/03:30pm 12.8 9.7 5.7 62 3.3 SSW 11 17 6 9 1020.4 1020.4 0.0
23/03:00pm 12.2 8.6 4.9 61 3.3 S 13 17 7 9 1020.6 1020.6 0.0
23/02:30pm 12.5 8.8 4.5 58 3.6 SE 13 15 7 8 1021.3 1021.3 0.0
23/02:00pm 12.6 9.2 4.1 56 3.8 ESE 11 15 6 8 1021.6 1021.6 0.0
23/01:30pm 12.6 9.3 4.3 57 3.8 ESE 11 17 6 9 1021.9 1021.9 0.0
23/01:00pm 12.2 8.7 3.7 56 3.8 SSE 11 19 6 10 1022.3 1022.3 0.0
23/12:30pm 12.9 9.7 3.0 51 4.4 SSE 9 15 5 8 1022.7 1022.7 0.0
23/12:00pm 12.8 9.0 3.7 54 4.1 E 13 17 7 9 1023.1 1023.2 0.0
23/11:30am 12.9 9.4 3.6 53 4.2 E 11 13 6 7 1023.7 1023.8 0.0
23/11:00am 12.7 9.4 2.3 49 4.5 W 9 17 5 9 1024.1 1024.2 0.0
23/10:30am 11.7 7.9 1.6 50 4.3 NW 11 19 6 10 1024.7 1024.8 0.0
23/10:00am 11.3 7.5 1.8 52 4.0 W 11 20 6 11 1024.9 1025.0 0.0
23/09:30am 10.7 6.9 1.5 53 3.9 W 11 19 6 10 1025.1 1025.2 0.0
23/09:00am 10.2 6.0 1.6 55 3.6 WNW 13 22 7 12 1025.3 1025.4 0.2
23/08:30am 9.2 5.3 1.4 58 3.2 W 11 20 6 11 1025.5 1025.6 0.2
23/08:00am 8.2 4.3 0.9 60 2.9 WNW 11 19 6 10 1025.5 1025.6 0.2
23/07:30am 7.2 3.2 0.6 63 2.6 WNW 11 17 6 9 1025.4 1025.5 0.2
23/07:00am 6.6 2.6 0.5 65 2.4 WNW 11 17 6 9 1025.2 1025.3 0.2
23/06:30am 6.4 2.0 0.5 66 2.3 WNW 13 20 7 11 1024.9 1025.0 0.2
23/06:00am 6.6 2.6 0.5 65 2.4 WNW 11 20 6 11 1024.7 1024.8 0.2
23/05:30am 7.0 3.0 0.7 64 2.5 W 11 20 6 11 1024.4 1024.5 0.2
23/05:00am 7.3 3.0 1.0 64 2.5 WNW 13 22 7 12 1024.3 1024.4 0.2
23/04:30am 7.5 3.2 0.9 63 2.6 WNW 13 22 7 12 1024.0 1024.1 0.2
23/04:00am 7.9 4.0 1.1 62 2.7 W 11 20 6 11 1023.9 1024.0 0.2
23/03:30am 8.2 4.0 1.4 62 2.8 W 13 22 7 12 1023.8 1023.9 0.2
23/03:00am 7.9 4.4 1.5 64 2.6 WNW 9 19 5 10 1023.9 1024.0 0.2
23/02:30am 8.5 4.3 1.6 62 2.8 W 13 28 7 15 1023.9 1024.0 0.2
23/02:00am 9.0 4.5 1.9 61 2.9 W 15 24 8 13 1024.0 1024.1 0.2
23/01:30am 9.1 4.2 2.0 61 3.0 W 17 32 9 17 1024.1 1024.2 0.2
23/01:00am 9.4 5.3 2.5 62 2.9 W 13 22 7 12 1024.2 1024.3 0.2
23/12:30am 9.9 5.8 2.3 59 3.2 W 13 20 7 11 1024.2 1024.3 0.2
23/12:00am 10.3 6.5 1.9 56 3.5 WSW 11 19 6 10 1024.0 1024.1 0.2
 
Date/Time
EST
Temp
°C
App
Temp
°C
Dew
Point
°C
Rel
Hum
%
Delta-T
°C
Wind Press
QNH
hPa
Press
MSL
hPa
Rain since
9am
mm
Dir  Spd
km/h
Gust
km/h
Spd
kts
Gust
kts
22/11:30pm 10.4 5.0 1.2 53 3.8 WSW 19 32 10 17 1023.9 1024.0 0.2
22/11:00pm 10.3 5.4 1.7 55 3.6 SW 17 26 9 14 1023.7 1023.8 0.2
22/10:30pm 10.3 5.8 1.9 56 3.5 WSW 15 22 8 12 1023.6 1023.7 0.2
22/10:00pm 9.9 5.7 1.8 57 3.4 WSW 13 30 7 16 1023.6 1023.7 0.2
22/09:30pm 10.1 5.2 2.0 57 3.4 WSW 17 30 9 16 1023.4 1023.5 0.2
22/09:00pm 9.8 5.6 1.9 58 3.3 SW 13 20 7 11 1023.2 1023.3 0.2
22/08:30pm 9.8 5.6 1.7 57 3.4 SW 13 20 7 11 1023.0 1023.0 0.2
22/08:00pm 10.3 5.8 1.9 56 3.5 SW 15 30 8 16 1022.7 1022.7 0.2
22/07:30pm 10.2 6.1 2.1 57 3.4 WSW 13 26 7 14 1022.3 1022.3 0.2
22/07:00pm 10.2 5.3 2.3 58 3.3 SW 17 30 9 16 1022.1 1022.1 0.2
22/06:30pm 10.3 5.4 1.9 56 3.5 SW 17 30 9 16 1021.6 1021.6 0.2
22/06:00pm 10.5 5.0 1.9 55 3.6 SW 20 39 11 21 1021.1 1021.1 0.2
22/05:30pm 10.6 5.4 2.4 57 3.5 SW 19 35 10 19 1020.5 1020.5 0.2
22/05:03pm 11.1 4.2 2.4 55 3.7 SW 28 48 15 26 1020.1 1020.1 0.2
22/05:00pm 11.1 4.6 2.4 55 3.7 SW 26 48 14 26 1020.1 1020.1 0.2
22/04:30pm 11.4 4.1 2.4 54 3.9 SW 30 54 16 29 1019.6 1019.6 0.2
22/04:00pm 11.4 4.5 2.4 54 3.9 SW 28 48 15 26 1019.2 1019.2 0.2
22/03:30pm 11.9 4.5 1.8 50 4.3 SW 30 52 16 28 1018.9 1018.9 0.2
22/03:00pm 12.1 4.3 2.0 50 4.3 SW 32 57 17 31 1018.3 1018.3 0.2
22/02:30pm 11.9 4.3 2.6 53 4.0 SW 32 52 17 28 1017.8 1017.8 0.2
22/02:00pm 12.3 4.5 1.9 49 4.5 SW 32 59 17 32 1017.2 1017.2 0.2
22/01:30pm 11.5 3.9 3.0 56 3.7 SW 32 54 17 29 1016.8 1016.8 0.2
22/01:00pm 12.3 4.3 1.9 49 4.5 SW 33 69 18 37 1016.5 1016.5 0.0
22/12:30pm 12.2 3.8 1.8 49 4.5 SW 35 65 19 35 1016.3 1016.3 0.0
22/12:00pm 12.4 5.3 3.4 54 4.0 SW 30 56 16 30 1016.0 1016.0 0.0
22/11:30am 12.2 4.3 2.4 51 4.3 SW 33 56 18 30 1015.9 1015.9 0.0
22/11:00am 12.5 4.6 2.1 49 4.5 SW 33 63 18 34 1015.4 1015.4 0.0
22/10:30am 10.8 2.7 3.1 59 3.4 SW 35 57 19 31 1015.2 1015.2 0.0
22/10:00am 11.7 4.7 2.2 52 4.1 SW 28 54 15 29 1014.6 1014.6 0.0
22/09:30am 11.2 3.5 2.2 54 3.9 SW 32 52 17 28 1014.2 1014.2 0.0
22/09:04am 11.6 3.7 2.1 52 4.1 SW 33 80 18 43 1013.8 1013.8 0.0
22/09:00am 11.6 4.0 2.6 54 3.9 SW 32 50 17 27 1013.7 1013.7 3.4
22/08:45am 11.2 3.6 2.8 56 3.6 SW 32 67 17 36 1013.5 1013.5 3.4
22/08:30am 11.1 4.2 2.4 55 3.7 SW 28 48 15 26 1013.1 1013.1 3.4
22/08:00am 10.6 2.9 2.2 56 3.6 SW 32 57 17 31 1012.5 1012.5 3.4
22/07:30am 10.0 1.8 2.6 60 3.2 SW 35 54 19 29 1011.6 1011.6 3.4
22/07:00am 10.3 2.1 2.9 60 3.2 SW 35 69 19 37 1010.7 1010.7 3.4
22/06:30am 10.3 1.4 3.3 62 3.0 SW 39 65 21 35 1010.3 1010.3 3.4
22/06:00am 9.5 -1.2 2.6 62 2.9 SW 48 89 26 48 1009.5 1009.5 3.4
22/05:56am 10.2 0.6 3.5 63 2.9 SW 43 89 23 48 1009.8 1009.8 3.4
22/05:30am 10.0 1.6 3.7 65 2.8 SW 37 67 20 36 1009.1 1009.1 3.4
22/05:00am 9.2 1.6 5.9 80 1.5 SW 35 70 19 38 1008.4 1008.4 3.4
22/04:30am 9.2 1.9 7.2 87 0.9 SW 35 65 19 35 1007.8 1007.8 3.0
22/04:00am 11.7 2.4 5.1 64 3.0 SW 43 80 23 43 1006.8 1006.8 0.6
22/03:30am 11.4 3.9 6.1 70 2.5 WSW 35 72 19 39 1006.1 1006.1 0.4
22/03:00am 12.2 3.9 6.3 67 2.8 WSW 39 82 21 44 1006.0 1006.0 0.2
22/02:30am 13.2 5.5 5.4 59 3.6 WSW 35 72 19 39 1005.6 1005.6 0.2
22/02:19am 13.7 4.4 4.8 55 4.1 WSW 43 96 23 52 1005.6 1005.6 0.2
22/02:00am 13.6 5.2 5.7 59 3.7 WSW 39 76 21 41 1005.6 1005.6 0.2
22/01:52am 13.6 6.7 6.5 62 3.4 WSW 32 76 17 41 1005.6 1005.6 0.2
22/01:30am 13.5 7.4 6.8 64 3.2 WSW 28 48 15 26 1005.5 1005.5 0.0
22/01:00am 12.0 5.5 6.7 70 2.5 WSW 30 56 16 30 1005.8 1005.8 0.0
22/12:30am 14.3 7.5 5.1 54 4.3 WSW 30 65 16 35 1005.1 1005.1 0.0
22/12:07am 14.7 8.1 4.4 50 4.8 WSW 28 59 15 32 1005.3 1005.3 0.0
22/12:00am 14.4 9.0 4.4 51 4.6 W 22 48 12 26 1005.3 1005.3 0.0
 
Date/Time
EST
Temp
°C
App
Temp
°C
Dew
Point
°C
Rel
Hum
%
Delta-T
°C
Wind Press
QNH
hPa
Press
MSL
hPa
Rain since
9am
mm
Dir  Spd
km/h
Gust
km/h
Spd
kts
Gust
kts
21/11:30pm 13.9 9.0 4.2 52 4.4 W 19 41 10 22 1006.0 1006.0 0.0
21/11:00pm 12.8 8.7 4.3 56 3.9 W 15 32 8 17 1006.8 1006.8 0.0
21/10:30pm 12.4 7.5 4.9 60 3.4 W 20 44 11 24 1007.6 1007.6 0.0
21/10:00pm 12.7 9.0 4.7 58 3.7 W 13 22 7 12 1008.4 1008.4 0.0
21/09:30pm 12.8 8.4 5.0 59 3.6 WSW 17 33 9 18 1009.0 1009.0 0.0
21/09:00pm 12.9 8.2 5.3 60 3.5 WSW 19 33 10 18 1009.7 1009.7 0.0
21/08:30pm 12.8 8.1 5.2 60 3.5 WSW 19 33 10 18 1010.0 1010.0 0.0
21/08:00pm 13.0 7.4 5.4 60 3.6 WSW 24 39 13 21 1010.4 1010.4 0.0
21/07:30pm 12.9 7.7 5.3 60 3.5 WSW 22 39 12 21 1010.6 1010.6 0.0
21/07:00pm 13.2 7.4 4.4 55 4.0 WSW 24 43 13 23 1010.7 1010.7 0.0
21/06:30pm 13.3 6.6 3.9 53 4.3 SW 28 48 15 26 1011.0 1011.0 0.0
21/06:00pm 13.6 6.8 3.1 49 4.7 WSW 28 56 15 30 1010.8 1010.8 0.0
21/05:30pm 13.4 6.1 2.6 48 4.8 SW 30 56 16 30 1011.0 1011.0 0.0
21/05:00pm 13.7 6.5 2.9 48 4.8 SW 30 52 16 28 1011.0 1011.0 0.0
21/04:32pm 14.0 7.2 3.2 48 4.8 WSW 28 46 15 25 1010.4 1010.4 0.0
21/04:30pm 14.0 7.6 3.2 48 4.8 WSW 26 46 14 25 1010.4 1010.4 0.0
21/04:00pm 14.5 7.0 4.2 50 4.7 SW 33 61 18 33 1010.3 1010.3 0.0
21/03:30pm 14.7 7.2 3.5 47 5.1 SW 32 69 17 37 1010.2 1010.2 0.0
21/03:00pm 15.0 7.4 3.8 47 5.1 WSW 33 65 18 35 1010.0 1010.0 0.0
21/02:30pm 15.6 7.6 4.0 46 5.4 WSW 35 65 19 35 1010.1 1010.1 0.0
21/02:00pm 15.7 8.4 4.4 47 5.3 WSW 32 57 17 31 1010.1 1010.1 0.0
21/01:30pm 14.8 8.0 5.1 52 4.6 SW 30 57 16 31 1010.3 1010.3 0.0
21/01:00pm 15.6 8.3 4.6 48 5.2 WSW 32 59 17 32 1010.3 1010.3 0.0
21/12:30pm 15.2 7.1 5.1 51 4.8 WSW 37 65 20 35 1010.4 1010.4 0.0
21/12:00pm 14.8 7.5 5.6 54 4.4 WSW 33 59 18 32 1010.7 1010.7 0.0
21/11:30am 14.7 8.3 5.2 53 4.5 WSW 28 57 15 31 1011.2 1011.2 0.0
21/11:00am 14.5 7.2 5.6 55 4.2 WSW 33 72 18 39 1011.2 1011.2 0.0
21/10:30am 13.9 7.0 7.2 64 3.3 WSW 33 65 18 35 1011.2 1011.2 0.0
21/10:00am 13.8 7.1 7.3 65 3.2 WSW 32 61 17 33 1010.9 1010.9 0.0
21/09:34am 13.9 8.2 8.3 69 2.8 WSW 28 48 15 26 1010.9 1010.9 0.0
21/09:30am 13.8 8.9 8.4 70 2.7 WSW 24 48 13 26 1010.8 1010.8 0.0
21/09:06am 13.1 7.6 9.2 77 2.0 WSW 28 50 15 27 1010.6 1010.6 0.0
21/09:00am 12.9 8.3 9.5 80 1.7 WSW 24 50 13 27 1010.6 1010.6 12.0

Other formats

Comma delimited format used in spreadsheet applications
http://www.bom.gov.au/fwo/IDV60801/IDV60801.94935.axf

JavaScript Object Notation format (JSON) in row-major order
http://www.bom.gov.au/fwo/IDV60801/IDV60801.94935.json

Data quality

Most of these data are generated automatically and are frequently updated. Quality checks on data are not normally performed. It is possible for incorrect values to appear. Refer to information at About Latest Weather Observations and please check the disclaimer before using these data.